Mc Connell Air Force Base
KIAB : now visible

Airfield :











YOU CAN JOIN US ON...

 
LOGIN :

Register | Disclaimer

   EN    FR    IT 

 









Legend :    VFR   Marginal VFR   IFR   Intensive IFR   Very Intensive IFR
Visi :
Ceiling :
>= 8 km
>= 3000ft
5 to 8 km
1000 to 3000 ft
1500m to 5 km
500 to 1000 ft
800 to 1500m
200 to 500 ft
< 800m
< 200 ft
Symbols :   Thunderstorms  Fog  Heavy snow  Heavy precipitations  Wind > 20 kt






- Airport Elevation : 1371 ft
- IATA code : IAB


KIAB - Mc Connell Air Force Base

CURRENT METAR :
  • 141556Z AUTO 03012KT 10SM CLR 07/M01 A3037 RMK AO2 SLP295 T00651012 $

EXPIRED METARs :
  • 141356Z AUTO 36007KT 10SM CLR 01/M02 A3033 RMK AO2 SLP283 T00101024 $

TAF AMD TAF KIAB
Valid from the 14 at 10:00 until the 15 at 16:00 UTC


141307Z 1410/1516 35009KT 9999 FEW030 SCT050 SCT180 QNH3022INS
BECMG 1414/1415 36009KT 9999 FEW200 510013 QNH3028INS
BECMG 1423/1424 VRB06KT 9999 SKC QNH3032INS TX10/1422Z TNM01/1412Z



MET'MAP, your aeronautical weather chart ! - Copyright ORBIFLY December 2007 - Disclaimer

ORBIFLY MET'MAP TEAM :

Programming & Development : Alexandra Zaïnal
Concept & Development : Baudouin d'Aumeries
Co-Development & Prog : Marc-Olivier Méhu
Technical & hardware support : Manuel Goepfert

Contact : metmap@orbifly.com




SOURCES & CREDITS :

   NOAA       Earth
Advisory